Time;durP1;ratioP1;P1;durP2;ratioP2;P2;SDS_P1;SDS_P2;PMS_P1;PMS_P2;Temp;Humidity;BMP_temperature;BMP_pressure;BME280_temperature;BME280_humidity;BME280_pressure;Samples;Min_cycle;Max_cycle;Signal;HPM_P1;HPM_P2
2021/05/23 00:04:57;;;;;;;2.25;0.20;;;10.20;99.90;;;;;;10072247;29;20058;-59
2021/05/23 00:09:59;;;;;;;3.08;0.28;;;10.10;99.90;;;;;;10073983;29;20120;-59
2021/05/23 00:15:04;;;;;;;1.95;0.30;;;10.00;99.90;;;;;;10073073;29;20069;-59
2021/05/23 00:20:06;;;;;;;1.67;0.50;;;9.90;99.90;;;;;;10073240;29;20068;-60
2021/05/23 00:25:08;;;;;;;3.05;0.22;;;9.90;99.90;;;;;;10072659;29;20045;-59
2021/05/23 00:30:11;;;;;;;4.05;0.28;;;9.80;99.90;;;;;;10066891;29;20060;-59
2021/05/23 00:35:14;;;;;;;3.80;0.30;;;9.70;99.90;;;;;;10073584;29;20049;-59
2021/05/23 00:40:16;;;;;;;4.68;0.60;;;9.70;99.90;;;;;;10069412;29;20136;-60
2021/05/23 00:45:19;;;;;;;1.05;0.35;;;9.60;99.90;;;;;;10070284;29;20107;-59
2021/05/23 00:50:24;;;;;;;1.52;0.20;;;9.50;99.90;;;;;;10070757;29;20486;-59
2021/05/23 00:55:25;;;;;;;0.32;0.20;;;9.40;99.90;;;;;;10070870;29;20053;-59
2021/05/23 01:00:39;;;;;;;1.02;0.30;;;9.40;99.90;;;;;;10071473;29;20116;-60
2021/05/23 01:05:41;;;;;;;3.10;0.30;;;9.40;99.90;;;;;;10069911;29;20113;-59
2021/05/23 01:11:08;;;;;;;2.53;0.43;;;9.40;99.90;;;;;;10072292;29;20053;-58
2021/05/23 01:16:22;;;;;;;1.85;0.30;;;9.30;99.90;;;;;;10067610;29;20105;-59
2021/05/23 01:21:28;;;;;;;1.30;0.20;;;9.20;99.90;;;;;;10070275;29;20065;-59
2021/05/23 01:26:36;;;;;;;3.83;0.40;;;9.20;99.90;;;;;;10068261;29;20059;-59
2021/05/23 01:31:39;;;;;;;1.95;0.28;;;9.20;99.90;;;;;;10070680;29;20325;-59
2021/05/23 01:36:41;;;;;;;1.38;0.35;;;9.20;99.90;;;;;;10067589;29;20049;-59
2021/05/23 01:41:44;;;;;;;3.10;0.30;;;9.10;99.90;;;;;;10072261;29;20113;-59
2021/05/23 01:46:46;;;;;;;4.28;0.30;;;9.10;99.90;;;;;;10070439;29;20092;-59
2021/05/23 01:51:47;;;;;;;2.20;0.30;;;9.10;99.90;;;;;;10070508;29;20049;-59
2021/05/23 01:56:49;;;;;;;1.77;0.45;;;9.10;99.90;;;;;;10072177;29;20068;-59
2021/05/23 02:01:51;;;;;;;1.80;0.30;;;9.00;99.90;;;;;;10035487;29;20548;-59
2021/05/23 02:06:53;;;;;;;1.73;0.40;;;9.10;99.90;;;;;;10070039;29;20143;-59
2021/05/23 02:11:55;;;;;;;2.67;0.68;;;9.10;99.90;;;;;;10069809;29;20052;-59
2021/05/23 02:16:58;;;;;;;1.15;0.25;;;9.10;99.90;;;;;;10071155;29;20060;-61
2021/05/23 02:22:00;;;;;;;1.35;0.60;;;9.10;99.90;;;;;;10070159;29;20425;-59
2021/05/23 02:27:01;;;;;;;1.55;0.20;;;9.20;99.90;;;;;;10078288;29;20072;-59
2021/05/23 02:32:08;;;;;;;2.63;0.75;;;9.20;99.90;;;;;;10077182;29;20064;-59
2021/05/23 02:37:10;;;;;;;2.00;0.20;;;9.30;99.90;;;;;;10075475;29;20481;-59
2021/05/23 02:42:12;;;;;;;3.03;0.30;;;9.30;99.90;;;;;;10076344;29;20044;-59
2021/05/23 02:47:13;;;;;;;1.25;0.40;;;9.30;99.90;;;;;;10076701;29;20108;-59
2021/05/23 02:52:15;;;;;;;1.80;0.35;;;9.30;99.90;;;;;;10076875;29;20117;-59
2021/05/23 02:57:17;;;;;;;1.10;0.20;;;9.30;99.90;;;;;;10071732;29;20061;-59
2021/05/23 03:02:19;;;;;;;1.50;0.30;;;9.20;99.90;;;;;;10076501;29;20057;-59
2021/05/23 03:07:22;;;;;;;0.85;0.20;;;9.20;99.90;;;;;;10073298;29;20056;-59
2021/05/23 03:12:24;;;;;;;4.40;0.25;;;9.20;99.90;;;;;;10076417;29;20109;-60
2021/05/23 03:17:25;;;;;;;1.73;0.30;;;9.20;99.90;;;;;;10071558;29;20122;-59
2021/05/23 03:22:28;;;;;;;4.03;0.30;;;9.30;99.90;;;;;;10075424;29;20057;-59
2021/05/23 03:27:29;;;;;;;3.05;1.92;;;9.30;99.90;;;;;;10076111;29;23584;-60
2021/05/23 03:32:32;;;;;;;2.72;0.52;;;9.30;99.90;;;;;;10074965;29;20057;-60
2021/05/23 03:37:33;;;;;;;3.53;0.50;;;9.40;99.90;;;;;;10076401;29;20113;-60
2021/05/23 03:42:35;;;;;;;1.77;0.47;;;9.40;99.90;;;;;;10072722;29;20060;-60
2021/05/23 03:47:37;;;;;;;2.95;0.28;;;9.40;99.90;;;;;;10073231;29;20061;-60
2021/05/23 03:52:39;;;;;;;2.90;0.40;;;9.30;99.90;;;;;;10074485;29;20065;-61
2021/05/23 03:57:40;;;;;;;2.88;0.40;;;9.20;99.90;;;;;;10073636;29;20060;-60
2021/05/23 04:02:52;;;;;;;3.90;0.40;;;9.20;99.90;;;;;;10074433;29;20539;-60
2021/05/23 04:07:55;;;;;;;1.25;0.38;;;9.20;99.90;;;;;;10073631;29;20105;-60
2021/05/23 04:13:00;;;;;;;4.22;0.40;;;9.20;99.90;;;;;;10074419;29;20548;-60
2021/05/23 04:18:01;;;;;;;3.80;0.43;;;9.20;99.90;;;;;;10072123;29;20619;-60
2021/05/23 04:23:03;;;;;;;2.25;0.35;;;9.10;99.90;;;;;;10074002;29;20136;-60
2021/05/23 04:28:05;;;;;;;0.75;0.30;;;9.10;99.90;;;;;;10070269;29;20059;-60
2021/05/23 04:33:06;;;;;;;4.13;0.40;;;9.10;99.90;;;;;;10074745;29;20048;-60
2021/05/23 04:38:08;;;;;;;3.83;0.40;;;9.20;99.90;;;;;;10072024;29;20133;-60
2021/05/23 04:43:10;;;;;;;1.77;0.43;;;9.30;99.90;;;;;;10069177;29;20077;-60
2021/05/23 04:48:12;;;;;;;3.75;0.43;;;9.30;99.90;;;;;;10070938;29;20084;-60
2021/05/23 04:53:14;;;;;;;2.00;0.60;;;9.30;99.90;;;;;;10073302;29;20053;-60
2021/05/23 04:58:16;;;;;;;1.75;0.40;;;9.40;99.90;;;;;;10074330;29;20072;-60
2021/05/23 05:03:17;;;;;;;1.13;0.43;;;9.40;99.90;;;;;;10069632;29;20545;-60
2021/05/23 05:08:19;;;;;;;2.05;0.35;;;9.30;99.90;;;;;;10072734;29;20112;-60
2021/05/23 05:13:21;;;;;;;1.67;0.38;;;9.30;99.90;;;;;;10071696;29;20065;-60
2021/05/23 05:18:22;;;;;;;4.53;0.43;;;9.20;99.90;;;;;;10069275;29;20347;-60
2021/05/23 05:23:24;;;;;;;2.58;0.40;;;9.20;99.90;;;;;;10067565;29;20116;-61
2021/05/23 05:28:26;;;;;;;1.25;0.40;;;9.30;99.90;;;;;;10071439;29;20587;-60
2021/05/23 05:33:28;;;;;;;0.93;0.50;;;9.30;99.90;;;;;;10070150;29;20045;-61
2021/05/23 05:38:30;;;;;;;5.90;0.50;;;9.50;99.90;;;;;;10071123;29;20157;-60
2021/05/23 05:43:31;;;;;;;2.85;0.30;;;9.50;99.90;;;;;;10071039;29;20049;-61
2021/05/23 05:48:35;;;;;;;2.75;0.20;;;9.70;99.90;;;;;;10068819;29;20120;-60
2021/05/23 05:53:36;;;;;;;0.82;0.38;;;9.90;99.90;;;;;;10070494;29;20144;-60
2021/05/23 05:58:38;;;;;;;2.67;0.50;;;10.10;99.90;;;;;;10067308;29;20079;-60
2021/05/23 06:03:40;;;;;;;2.08;0.30;;;10.20;99.90;;;;;;10070249;29;20118;-61
2021/05/23 06:08:41;;;;;;;0.80;0.20;;;10.40;99.90;;;;;;10069283;29;20049;-60
2021/05/23 06:13:43;;;;;;;3.90;0.50;;;10.50;99.90;;;;;;10069430;29;20764;-60
2021/05/23 06:18:45;;;;;;;1.73;0.30;;;10.70;99.90;;;;;;10069613;29;20056;-60
2021/05/23 06:23:47;;;;;;;0.52;0.20;;;10.70;99.90;;;;;;10068945;29;20063;-60
2021/05/23 06:28:49;;;;;;;0.73;0.20;;;10.80;99.90;;;;;;10071487;29;20041;-60
2021/05/23 06:33:51;;;;;;;2.55;0.30;;;10.90;99.90;;;;;;10069641;29;20057;-60
2021/05/23 06:38:52;;;;;;;0.85;0.30;;;11.10;99.90;;;;;;10070182;29;20156;-60
2021/05/23 06:43:54;;;;;;;1.05;0.30;;;11.20;99.90;;;;;;10069539;29;20053;-60
2021/05/23 06:48:56;;;;;;;1.75;0.50;;;11.20;99.90;;;;;;10069457;29;20549;-60
2021/05/23 06:53:57;;;;;;;3.35;0.40;;;11.30;99.90;;;;;;10068793;29;20128;-60
2021/05/23 06:58:59;;;;;;;1.30;0.40;;;11.50;99.90;;;;;;10069358;29;20125;-60
2021/05/23 07:04:01;;;;;;;0.47;0.20;;;11.60;99.90;;;;;;10067662;29;20057;-60
2021/05/23 07:09:03;;;;;;;4.72;0.20;;;11.80;99.90;;;;;;10069921;29;20057;-60
2021/05/23 07:14:05;;;;;;;1.50;0.40;;;11.90;99.90;;;;;;10050522;29;20046;-60
2021/05/23 07:19:07;;;;;;;1.58;0.30;;;12.10;99.90;;;;;;10066873;29;20078;-61
2021/05/23 07:24:08;;;;;;;2.78;0.65;;;12.10;99.90;;;;;;10076068;29;20605;-60
2021/05/23 07:29:10;;;;;;;1.85;0.20;;;12.20;99.90;;;;;;10074243;29;20092;-60
2021/05/23 07:34:12;;;;;;;3.30;0.20;;;12.30;99.90;;;;;;10074433;29;20060;-60
2021/05/23 07:39:14;;;;;;;5.03;0.85;;;12.90;99.90;;;;;;10072617;29;20060;-60
2021/05/23 07:44:17;;;;;;;1.65;0.20;;;12.70;99.90;;;;;;10075437;29;20057;-60
2021/05/23 07:49:19;;;;;;;1.85;0.10;;;12.90;99.80;;;;;;10074744;29;20053;-60
2021/05/23 07:54:21;;;;;;;1.75;0.20;;;13.10;99.00;;;;;;10073887;29;20077;-60
2021/05/23 07:59:24;;;;;;;0.40;0.10;;;13.30;98.10;;;;;;10069730;29;20103;-60
2021/05/23 08:04:26;;;;;;;1.38;0.30;;;13.30;96.80;;;;;;10074304;29;20049;-60
2021/05/23 08:09:27;;;;;;;1.83;0.20;;;13.30;94.80;;;;;;10073782;29;20113;-60
2021/05/23 08:14:29;;;;;;;0.28;0.10;;;13.50;94.30;;;;;;10072574;29;20045;-60
2021/05/23 08:19:31;;;;;;;0.30;0.10;;;13.70;92.70;;;;;;10074351;29;20159;-60
2021/05/23 08:24:33;;;;;;;1.58;0.15;;;13.70;90.80;;;;;;10074820;29;20044;-60
2021/05/23 08:29:35;;;;;;;2.63;0.20;;;14.00;90.70;;;;;;10071064;29;20052;-59
2021/05/23 08:34:37;;;;;;;0.60;0.20;;;14.20;86.50;;;;;;10072123;29;20057;-59
2021/05/23 08:39:39;;;;;;;3.83;0.38;;;14.20;88.60;;;;;;10061732;29;20061;-59
2021/05/23 08:44:41;;;;;;;1.67;0.30;;;14.20;88.20;;;;;;10072378;29;20063;-59
2021/05/23 08:49:44;;;;;;;1.85;0.20;;;14.20;85.90;;;;;;10072145;29;20117;-59
2021/05/23 08:54:48;;;;;;;0.90;0.20;;;14.40;84.80;;;;;;10072583;29;20097;-59
2021/05/23 08:59:50;;;;;;;0.45;0.20;;;14.30;83.10;;;;;;10069796;29;20085;-63
2021/05/23 09:04:52;;;;;;;2.10;0.60;;;14.50;81.90;;;;;;10070510;29;20072;-59
2021/05/23 09:09:54;;;;;;;1.20;0.20;;;14.90;82.70;;;;;;10072113;29;20127;-59
2021/05/23 09:14:56;;;;;;;0.73;0.17;;;15.10;82.00;;;;;;10072068;29;20053;-60
2021/05/23 09:19:57;;;;;;;2.63;0.50;;;15.00;81.00;;;;;;10072325;29;20172;-61
2021/05/23 09:25:01;;;;;;;1.52;0.95;;;15.20;83.40;;;;;;10071753;29;20049;-61
2021/05/23 09:30:11;;;;;;;2.17;0.10;;;15.50;81.50;;;;;;10072932;29;20453;-61
2021/05/23 09:35:17;;;;;;;2.00;0.10;;;15.10;79.90;;;;;;10069155;29;20112;-59
2021/05/23 09:40:24;;;;;;;1.05;0.20;;;15.20;77.10;;;;;;10069142;29;20061;-59
2021/05/23 09:45:49;;;;;;;2.85;0.20;;;14.90;78.30;;;;;;10070203;29;20136;-58
2021/05/23 09:50:52;;;;;;;1.30;0.17;;;15.40;76.50;;;;;;10069455;29;20061;-59
2021/05/23 09:56:02;;;;;;;2.50;0.20;;;15.30;72.60;;;;;;10068992;29;20101;-60
2021/05/23 10:01:06;;;;;;;1.95;0.20;;;15.20;73.30;;;;;;10069762;29;20048;-60
2021/05/23 10:06:09;;;;;;;1.35;0.15;;;15.20;77.40;;;;;;10069503;29;20140;-59
2021/05/23 10:11:11;;;;;;;2.08;0.22;;;15.20;77.40;;;;;;10068716;29;20049;-60
2021/05/23 10:16:13;;;;;;;1.30;0.20;;;15.20;77.80;;;;;;10066284;29;20053;-59
2021/05/23 10:21:15;;;;;;;2.67;0.20;;;15.20;78.50;;;;;;10068323;29;20089;-59
2021/05/23 10:26:21;;;;;;;1.58;0.20;;;15.20;76.60;;;;;;10054320;29;20437;-59
2021/05/23 10:31:33;;;;;;;4.57;0.30;;;15.20;77.00;;;;;;10068233;29;20048;-59
2021/05/23 10:36:39;;;;;;;2.15;0.20;;;15.20;75.50;;;;;;10068988;29;20045;-59
2021/05/23 10:41:41;;;;;;;0.85;0.10;;;15.00;73.40;;;;;;10069039;29;20057;-59
2021/05/23 10:47:13;;;;;;;6.68;2.85;;;15.10;75.30;;;;;;10016041;29;20065;-60
2021/05/23 10:52:16;;;;;;;1.88;0.30;;;15.50;75.20;;;;;;10075878;29;20104;-59
2021/05/23 10:57:18;;;;;;;2.17;0.38;;;15.50;75.50;;;;;;10072352;29;20832;-59
2021/05/23 11:02:20;;;;;;;0.32;0.25;;;16.20;74.70;;;;;;10076486;29;20199;-60
2021/05/23 11:07:21;;;;;;;2.22;0.35;;;15.90;75.10;;;;;;10075689;29;20065;-60
2021/05/23 11:12:23;;;;;;;2.28;0.40;;;14.90;86.10;;;;;;10074805;29;20117;-61
2021/05/23 11:17:25;;;;;;;1.95;0.98;;;11.70;99.90;;;;;;10074934;29;20132;-61
2021/05/23 11:22:29;;;;;;;2.42;1.10;;;10.80;99.90;;;;;;10075875;29;20092;-60
2021/05/23 11:27:30;;;;;;;1.00;0.60;;;10.90;99.90;;;;;;10073368;29;20049;-60
2021/05/23 11:32:33;;;;;;;4.90;0.57;;;11.40;99.90;;;;;;10075610;29;20064;-60
2021/05/23 11:37:46;;;;;;;1.95;0.75;;;12.00;99.90;;;;;;10076449;29;20052;-60
2021/05/23 11:42:49;;;;;;;1.85;0.40;;;12.50;99.90;;;;;;10073973;29;20049;-60
2021/05/23 11:47:53;;;;;;;5.57;2.45;;;12.90;99.90;;;;;;10074507;29;20041;-60
2021/05/23 11:52:59;;;;;;;0.88;0.35;;;13.90;99.90;;;;;;10072316;29;20089;-61
2021/05/23 11:58:09;;;;;;;1.93;0.40;;;14.10;99.90;;;;;;10071857;29;20049;-60
2021/05/23 12:03:11;;;;;;;1.95;0.40;;;14.10;99.90;;;;;;10072791;29;20140;-61
2021/05/23 12:08:21;;;;;;;0.50;0.30;;;14.10;99.90;;;;;;10073717;29;20045;-61
2021/05/23 12:13:45;;;;;;;1.15;0.30;;;14.00;99.90;;;;;;10072640;29;20049;-61
2021/05/23 12:18:51;;;;;;;0.55;0.20;;;14.50;99.90;;;;;;10072657;29;20056;-61
2021/05/23 12:23:54;;;;;;;4.23;0.23;;;14.80;99.90;;;;;;10072097;29;20064;-61
2021/05/23 12:28:56;;;;;;;3.72;0.75;;;15.00;99.90;;;;;;10072668;29;20125;-61
2021/05/23 12:33:58;;;;;;;1.55;0.30;;;15.40;98.60;;;;;;10069874;29;20141;-61
2021/05/23 12:39:06;;;;;;;1.60;0.15;;;15.90;94.20;;;;;;10074219;29;20124;-61
2021/05/23 12:44:28;;;;;;;1.88;0.15;;;15.70;93.00;;;;;;10069121;29;20056;-61
2021/05/23 12:49:34;;;;;;;0.10;0.10;;;16.00;91.10;;;;;;10024441;29;20057;-61
2021/05/23 12:54:40;;;;;;;0.82;0.15;;;15.70;90.80;;;;;;10070728;29;20511;-61
2021/05/23 12:59:43;;;;;;;0.50;0.10;;;15.40;90.20;;;;;;10070708;29;20056;-62
2021/05/23 13:04:45;;;;;;;0.77;0.20;;;15.70;91.60;;;;;;10072123;29;20571;-61
2021/05/23 13:09:48;;;;;;;1.35;0.10;;;15.50;91.60;;;;;;10069893;29;20097;-61
2021/05/23 13:15:00;;;;;;;1.08;0.10;;;15.10;91.80;;;;;;10070204;29;20053;-62
2021/05/23 13:20:03;;;;;;;0.32;0.10;;;14.90;91.50;;;;;;10073616;29;20085;-65
2021/05/23 13:25:09;;;;;;;0.95;0.10;;;15.80;89.20;;;;;;10073338;29;20132;-61
2021/05/23 13:30:11;;;;;;;0.20;0.10;;;16.10;83.70;;;;;;10070049;29;20376;-62
2021/05/23 13:35:13;;;;;;;1.13;0.10;;;17.00;84.80;;;;;;10072164;29;20089;-62
2021/05/23 13:40:15;;;;;;;0.52;0.30;;;16.80;77.50;;;;;;10055752;29;20048;-62
2021/05/23 13:45:18;;;;;;;5.57;0.17;;;17.60;77.60;;;;;;10073289;29;20393;-61
2021/05/23 13:50:22;;;;;;;3.10;0.10;;;17.60;77.60;;;;;;10068114;29;20076;-63
2021/05/23 13:55:23;;;;;;;0.22;0.10;;;16.80;73.10;;;;;;10070420;29;20067;-63
2021/05/23 14:00:25;;;;;;;0.20;0.10;;;17.70;70.50;;;;;;10072171;29;20105;-62
2021/05/23 14:05:27;;;;;;;1.65;0.10;;;18.20;68.90;;;;;;10073873;29;20056;-62
2021/05/23 14:10:29;;;;;;;2.05;0.10;;;17.90;66.00;;;;;;10073307;29;20057;-62
2021/05/23 14:15:31;;;;;;;0.50;0.10;;;18.60;66.20;;;;;;10069881;29;20116;-61
2021/05/23 14:20:43;;;;;;;1.25;0.30;;;18.40;61.10;;;;;;10073107;29;20045;-62
2021/05/23 14:25:45;;;;;;;0.47;0.10;;;18.90;62.80;;;;;;10079620;29;20057;-62
2021/05/23 14:30:47;;;;;;;0.03;0.00;;;19.30;60.80;;;;;;10075857;29;20057;-61
2021/05/23 14:35:49;;;;;;;0.30;0.10;;;18.80;60.50;;;;;;10076513;29;20056;-61
2021/05/23 14:40:51;;;;;;;0.93;0.10;;;18.70;62.30;;;;;;10078445;29;20052;-60
2021/05/23 14:45:53;;;;;;;0.40;0.20;;;17.90;64.30;;;;;;10077200;29;20061;-60
2021/05/23 14:50:56;;;;;;;1.08;0.10;;;18.00;65.40;;;;;;10076336;29;20048;-60
2021/05/23 14:55:58;;;;;;;0.95;0.03;;;17.30;66.60;;;;;;10078237;29;20110;-60
2021/05/23 15:01:03;;;;;;;0.75;0.10;;;18.30;64.60;;;;;;10076480;29;20107;-61
2021/05/23 15:06:06;;;;;;;0.38;0.00;;;19.60;60.90;;;;;;10076359;29;20053;-60
2021/05/23 15:11:08;;;;;;;0.95;0.10;;;18.10;58.60;;;;;;10076298;29;20064;-60
2021/05/23 15:16:10;;;;;;;0.55;0.08;;;17.70;62.50;;;;;;10077835;29;20057;-60
2021/05/23 15:21:11;;;;;;;1.80;0.10;;;17.30;65.20;;;;;;10073666;29;20136;-61
2021/05/23 15:26:19;;;;;;;1.15;0.10;;;17.00;67.60;;;;;;10073475;29;20511;-59
2021/05/23 15:31:22;;;;;;;1.23;0.20;;;17.00;69.00;;;;;;10073169;29;20056;-61
2021/05/23 15:36:23;;;;;;;0.57;0.10;;;17.30;66.20;;;;;;10073702;29;20080;-61
2021/05/23 15:41:25;;;;;;;0.55;0.10;;;17.10;64.40;;;;;;10074985;29;20041;-60
2021/05/23 15:46:29;;;;;;;1.40;0.17;;;16.90;63.10;;;;;;10061831;29;20231;-60
2021/05/23 15:51:31;;;;;;;2.35;0.10;;;17.00;61.70;;;;;;10077719;29;20064;-60
2021/05/23 15:56:32;;;;;;;1.90;0.15;;;17.00;63.50;;;;;;10066124;29;20049;-60
2021/05/23 16:01:35;;;;;;;1.23;0.10;;;17.20;61.30;;;;;;10072573;29;20061;-60
2021/05/23 16:06:37;;;;;;;1.15;0.10;;;17.10;62.50;;;;;;10072209;29;20060;-60
2021/05/23 16:11:39;;;;;;;0.15;0.05;;;17.10;62.90;;;;;;10074591;29;20146;-60
2021/05/23 16:16:41;;;;;;;0.85;0.03;;;17.90;61.20;;;;;;10071463;29;20544;-60
2021/05/23 16:21:43;;;;;;;2.40;0.10;;;17.60;62.30;;;;;;10068935;29;20132;-60
2021/05/23 16:26:45;;;;;;;1.58;0.10;;;17.30;62.90;;;;;;10074228;29;20135;-60
2021/05/23 16:31:47;;;;;;;1.35;0.10;;;17.40;62.30;;;;;;10070180;29;20132;-60
2021/05/23 16:36:51;;;;;;;1.40;0.20;;;17.10;62.40;;;;;;10071569;29;20053;-60
2021/05/23 16:41:53;;;;;;;0.73;0.17;;;17.00;63.30;;;;;;10072651;29;20041;-60
2021/05/23 16:46:55;;;;;;;1.85;0.13;;;16.70;64.50;;;;;;10070949;29;20583;-60
2021/05/23 16:51:57;;;;;;;2.22;0.13;;;16.80;64.50;;;;;;10071964;29;20113;-60
2021/05/23 16:56:59;;;;;;;1.20;0.35;;;16.70;66.90;;;;;;10072636;29;20049;-61
2021/05/23 17:02:01;;;;;;;1.45;0.20;;;16.60;66.30;;;;;;10070296;29;20136;-61
2021/05/23 17:07:02;;;;;;;2.17;0.20;;;17.30;63.40;;;;;;10068972;29;20140;-61
2021/05/23 17:12:04;;;;;;;1.00;0.20;;;17.70;62.50;;;;;;10072761;29;20140;-61
2021/05/23 17:17:06;;;;;;;1.10;0.10;;;17.20;63.00;;;;;;10072206;29;20437;-60
2021/05/23 17:22:09;;;;;;;1.48;0.10;;;16.80;64.20;;;;;;10071941;29;20053;-61
2021/05/23 17:27:11;;;;;;;0.50;0.10;;;16.70;64.90;;;;;;10069894;29;20093;-61
2021/05/23 17:32:13;;;;;;;0.57;0.10;;;16.70;64.90;;;;;;10070246;29;20049;-60
2021/05/23 17:37:14;;;;;;;3.00;0.10;;;16.50;66.00;;;;;;10071672;29;20191;-60
2021/05/23 17:42:16;;;;;;;0.35;0.10;;;16.30;65.80;;;;;;10070833;29;20492;-60
2021/05/23 17:47:18;;;;;;;1.20;0.10;;;16.40;67.80;;;;;;10071779;29;20073;-60
2021/05/23 17:52:20;;;;;;;1.05;0.10;;;16.50;66.10;;;;;;10072160;29;20057;-60
2021/05/23 17:57:21;;;;;;;1.45;0.30;;;16.90;66.10;;;;;;10071003;29;20667;-60
2021/05/23 18:02:23;;;;;;;0.98;0.30;;;16.70;66.80;;;;;;10069440;29;20385;-60
2021/05/23 18:07:25;;;;;;;0.82;0.10;;;16.60;68.30;;;;;;10072421;29;20117;-60
2021/05/23 18:12:27;;;;;;;1.35;0.10;;;16.60;66.40;;;;;;10072525;29;20135;-60
2021/05/23 18:17:29;;;;;;;1.10;0.20;;;16.30;67.20;;;;;;10068965;29;20507;-60
2021/05/23 18:22:31;;;;;;;3.55;0.30;;;16.30;67.40;;;;;;10068770;29;20052;-60
2021/05/23 18:27:34;;;;;;;1.05;0.10;;;16.10;66.80;;;;;;10069522;29;20064;-60
2021/05/23 18:32:36;;;;;;;2.40;0.17;;;15.90;68.00;;;;;;10070625;29;20049;-60
2021/05/23 18:37:39;;;;;;;0.30;0.10;;;15.80;69.40;;;;;;10058808;29;20104;-60
2021/05/23 18:42:42;;;;;;;2.08;0.17;;;15.70;69.40;;;;;;10065609;29;20055;-60
2021/05/23 18:47:44;;;;;;;0.98;0.10;;;15.70;69.50;;;;;;10052664;29;20048;-60
2021/05/23 18:52:47;;;;;;;1.40;0.10;;;15.50;69.60;;;;;;10054680;29;20053;-60
2021/05/23 18:57:49;;;;;;;0.73;0.22;;;15.40;70.60;;;;;;10068117;29;20758;-60
2021/05/23 19:02:51;;;;;;;0.50;0.20;;;15.40;70.90;;;;;;10068051;29;20037;-60
2021/05/23 19:07:53;;;;;;;1.55;0.25;;;15.20;71.80;;;;;;10070719;29;20056;-60
2021/05/23 19:12:56;;;;;;;1.20;0.30;;;15.00;73.50;;;;;;10073681;29;20105;-60
2021/05/23 19:17:57;;;;;;;0.82;0.30;;;14.80;74.80;;;;;;10075564;29;20041;-61
2021/05/23 19:22:59;;;;;;;3.35;0.35;;;14.70;74.60;;;;;;10061252;29;20049;-64
2021/05/23 19:28:01;;;;;;;1.00;0.30;;;14.50;74.10;;;;;;10078291;29;20049;-62
2021/05/23 19:33:04;;;;;;;0.47;0.40;;;14.40;75.90;;;;;;10077542;29;20113;-62
2021/05/23 19:38:05;;;;;;;0.80;0.30;;;14.20;76.70;;;;;;10077560;29;20105;-61
2021/05/23 19:43:07;;;;;;;0.80;0.30;;;14.00;78.80;;;;;;10082054;29;20048;-58
2021/05/23 19:48:09;;;;;;;2.08;0.60;;;13.90;80.80;;;;;;10077969;29;20112;-58
2021/05/23 19:53:11;;;;;;;1.55;0.63;;;13.70;80.30;;;;;;10075861;29;20049;-59
2021/05/23 19:58:13;;;;;;;5.35;1.67;;;13.50;81.20;;;;;;10077628;29;20057;-58
2021/05/23 20:03:14;;;;;;;4.13;1.10;;;13.30;84.60;;;;;;10075244;29;20048;-59
2021/05/23 20:08:16;;;;;;;3.15;1.13;;;13.20;85.80;;;;;;10075264;29;20057;-58
2021/05/23 20:13:18;;;;;;;3.42;0.90;;;13.10;87.00;;;;;;10074731;29;21366;-58
2021/05/23 20:18:21;;;;;;;2.55;0.82;;;12.90;86.70;;;;;;10076515;29;20049;-58
2021/05/23 20:23:23;;;;;;;1.73;0.70;;;12.70;88.40;;;;;;10059813;29;20442;-58
2021/05/23 20:28:25;;;;;;;2.58;0.90;;;12.50;91.30;;;;;;10075176;29;20113;-58
2021/05/23 20:33:27;;;;;;;2.08;0.80;;;12.40;93.10;;;;;;10076293;29;20092;-60
2021/05/23 20:38:28;;;;;;;3.17;1.75;;;12.20;95.20;;;;;;10074009;29;20113;-58
2021/05/23 20:43:31;;;;;;;4.28;2.08;;;12.10;96.20;;;;;;10077365;29;20469;-58
2021/05/23 20:48:33;;;;;;;1.75;0.90;;;11.80;98.40;;;;;;10073926;29;20108;-58
2021/05/23 20:53:35;;;;;;;1.30;0.57;;;11.70;99.90;;;;;;10073143;29;20543;-58
2021/05/23 20:58:37;;;;;;;2.00;0.50;;;11.50;99.90;;;;;;10071679;29;20053;-59
2021/05/23 21:03:39;;;;;;;2.85;0.60;;;11.40;99.90;;;;;;10072424;29;20049;-59
2021/05/23 21:08:42;;;;;;;5.80;1.20;;;11.20;99.90;;;;;;10072413;29;20048;-59
2021/05/23 21:13:44;;;;;;;5.70;1.27;;;11.10;99.90;;;;;;10070816;29;20474;-60
2021/05/23 21:18:47;;;;;;;6.05;2.63;;;11.00;99.90;;;;;;10068634;29;20117;-58
2021/05/23 21:23:48;;;;;;;10.50;3.65;;;10.80;99.90;;;;;;10072598;29;20397;-60
2021/05/23 21:28:50;;;;;;;6.55;3.78;;;10.70;99.90;;;;;;10071520;29;20053;-57
2021/05/23 21:33:52;;;;;;;7.45;3.17;;;10.50;99.90;;;;;;10070680;29;20117;-59
2021/05/23 21:38:54;;;;;;;5.38;2.40;;;10.50;99.90;;;;;;10073403;29;20049;-59
2021/05/23 21:43:56;;;;;;;7.70;2.25;;;10.40;99.90;;;;;;10067752;29;20072;-58
2021/05/23 21:48:58;;;;;;;3.78;2.05;;;10.30;99.90;;;;;;10069565;29;20109;-60
2021/05/23 21:54:00;;;;;;;8.80;3.35;;;10.30;99.90;;;;;;10068107;29;20434;-58
2021/05/23 21:59:02;;;;;;;8.60;2.80;;;10.20;99.90;;;;;;10075788;29;20057;-58
2021/05/23 22:04:04;;;;;;;5.05;2.70;;;10.00;99.90;;;;;;10072888;29;20052;-58
2021/05/23 22:09:07;;;;;;;7.25;3.92;;;10.00;99.90;;;;;;10070910;29;20057;-60
2021/05/23 22:14:09;;;;;;;7.53;3.90;;;9.80;99.90;;;;;;10068314;29;20068;-58
2021/05/23 22:19:11;;;;;;;6.50;3.38;;;9.60;99.90;;;;;;10070044;29;20101;-59
2021/05/23 22:24:12;;;;;;;6.22;3.80;;;9.50;99.90;;;;;;10071980;29;20052;-58
2021/05/23 22:29:14;;;;;;;10.48;4.72;;;9.40;99.90;;;;;;10068156;29;20127;-58
2021/05/23 22:34:16;;;;;;;8.35;5.13;;;9.40;99.90;;;;;;10068006;29;20424;-58
2021/05/23 22:39:18;;;;;;;7.05;4.40;;;9.30;99.90;;;;;;10071595;29;20124;-58
2021/05/23 22:44:20;;;;;;;14.18;6.40;;;9.20;99.90;;;;;;10063586;29;20076;-60
2021/05/23 22:49:22;;;;;;;17.05;6.85;;;9.20;99.90;;;;;;10075371;29;20442;-58
2021/05/23 22:54:24;;;;;;;12.48;4.68;;;9.10;99.90;;;;;;10076491;29;20114;-60
2021/05/23 22:59:25;;;;;;;9.00;4.97;;;9.10;99.90;;;;;;10075838;29;20121;-60
2021/05/23 23:04:33;;;;;;;6.00;4.00;;;8.90;99.90;;;;;;10075450;29;20555;-59
2021/05/23 23:09:35;;;;;;;14.02;5.63;;;8.80;99.90;;;;;;10077367;29;20663;-59
2021/05/23 23:14:37;;;;;;;6.95;4.22;;;8.80;99.90;;;;;;10074835;29;20104;-58
2021/05/23 23:19:38;;;;;;;3.47;2.38;;;8.70;99.90;;;;;;10074084;29;20113;-60
2021/05/23 23:24:40;;;;;;;3.10;2.03;;;8.60;99.90;;;;;;10074988;29;20064;-58
2021/05/23 23:29:42;;;;;;;5.95;1.73;;;8.50;99.90;;;;;;10076188;29;20117;-58
2021/05/23 23:34:44;;;;;;;4.63;1.60;;;8.40;99.90;;;;;;10073204;29;20056;-58
2021/05/23 23:39:45;;;;;;;7.15;1.88;;;8.40;99.90;;;;;;10073439;29;20409;-59
2021/05/23 23:44:47;;;;;;;5.35;1.27;;;8.30;99.90;;;;;;10076013;29;20117;-58
2021/05/23 23:49:57;;;;;;;2.67;1.55;;;8.30;99.90;;;;;;10074931;29;20045;-59
2021/05/23 23:54:59;;;;;;;5.65;2.22;;;8.20;99.90;;;;;;10074626;29;20116;-58
